sensor_id;sensor_type;location;lat;lon;timestamp;pressure;altitude;pressure_sealevel;temperature;humidity
73671;BME280;61968;48.178;11.566;2024-03-23T00:55:57;95186.69;;;11.96;32.11
73671;BME280;61968;48.178;11.566;2024-03-23T00:58:23;95185.03;;;11.90;32.18
73671;BME280;61968;48.178;11.566;2024-03-23T01:00:49;95182.59;;;11.84;32.03
73671;BME280;61968;48.178;11.566;2024-03-23T01:03:15;95178.59;;;11.76;32.29
73671;BME280;61968;48.178;11.566;2024-03-23T01:05:41;95175.50;;;11.62;32.18
73671;BME280;61968;48.178;11.566;2024-03-23T01:08:07;95172.34;;;11.65;32.16
73671;BME280;61968;48.178;11.566;2024-03-23T01:10:33;95168.00;;;11.76;31.94
73671;BME280;61968;48.178;11.566;2024-03-23T01:13:00;95160.84;;;11.76;31.97
73671;BME280;61968;48.178;11.566;2024-03-23T01:15:27;95159.03;;;11.82;31.63
73671;BME280;61968;48.178;11.566;2024-03-23T01:17:53;95158.81;;;11.89;31.75
73671;BME280;61968;48.178;11.566;2024-03-23T01:20:19;95150.66;;;11.95;31.60
73671;BME280;61968;48.178;11.566;2024-03-23T01:22:45;95150.88;;;11.89;31.40
73671;BME280;61968;48.178;11.566;2024-03-23T01:25:11;95154.41;;;11.72;31.76
73671;BME280;61968;48.178;11.566;2024-03-23T01:27:37;95152.72;;;11.88;31.60
73671;BME280;61968;48.178;11.566;2024-03-23T01:30:06;95151.72;;;11.94;31.76
73671;BME280;61968;48.178;11.566;2024-03-23T01:32:32;95146.44;;;11.67;31.90
73671;BME280;61968;48.178;11.566;2024-03-23T01:34:59;95152.19;;;11.86;31.64
73671;BME280;61968;48.178;11.566;2024-03-23T01:37:24;95142.94;;;11.89;31.89
73671;BME280;61968;48.178;11.566;2024-03-23T01:39:51;95133.59;;;11.81;31.70
73671;BME280;61968;48.178;11.566;2024-03-23T01:42:16;95144.66;;;11.73;31.79
73671;BME280;61968;48.178;11.566;2024-03-23T01:44:42;95136.63;;;11.95;31.45
73671;BME280;61968;48.178;11.566;2024-03-23T01:47:09;95134.69;;;11.85;31.68
73671;BME280;61968;48.178;11.566;2024-03-23T01:49:36;95137.53;;;11.79;31.50
73671;BME280;61968;48.178;11.566;2024-03-23T01:52:02;95129.91;;;11.82;31.69
73671;BME280;61968;48.178;11.566;2024-03-23T01:54:29;95125.25;;;11.67;31.92
73671;BME280;61968;48.178;11.566;2024-03-23T01:56:54;95128.25;;;11.76;31.92
73671;BME280;61968;48.178;11.566;2024-03-23T01:59:22;95122.03;;;11.65;31.80
73671;BME280;61968;48.178;11.566;2024-03-23T02:01:47;95128.03;;;11.83;31.94
73671;BME280;61968;48.178;11.566;2024-03-23T02:04:15;95117.66;;;11.76;31.89
73671;BME280;61968;48.178;11.566;2024-03-23T02:06:41;95116.94;;;11.86;32.01
73671;BME280;61968;48.178;11.566;2024-03-23T02:09:07;95109.53;;;11.88;31.95
73671;BME280;61968;48.178;11.566;2024-03-23T02:11:33;95099.47;;;11.90;32.04
73671;BME280;61968;48.178;11.566;2024-03-23T02:13:59;95102.34;;;11.83;31.97
73671;BME280;61968;48.178;11.566;2024-03-23T02:16:25;95095.34;;;11.72;32.27
73671;BME280;61968;48.178;11.566;2024-03-23T02:18:51;95102.00;;;11.74;32.32
73671;BME280;61968;48.178;11.566;2024-03-23T02:21:18;95095.75;;;11.86;32.18
73671;BME280;61968;48.178;11.566;2024-03-23T02:23:46;95081.50;;;11.92;31.88
73671;BME280;61968;48.178;11.566;2024-03-23T02:26:11;95090.16;;;11.82;32.09
73671;BME280;61968;48.178;11.566;2024-03-23T02:28:39;95077.97;;;11.81;32.45
73671;BME280;61968;48.178;11.566;2024-03-23T02:31:04;95085.06;;;11.75;32.25
73671;BME280;61968;48.178;11.566;2024-03-23T02:33:31;95084.88;;;11.55;32.57
73671;BME280;61968;48.178;11.566;2024-03-23T02:35:57;95076.22;;;11.65;32.54
73671;BME280;61968;48.178;11.566;2024-03-23T02:38:23;95070.03;;;11.54;32.66
73671;BME280;61968;48.178;11.566;2024-03-23T02:40:50;95069.00;;;11.55;32.73
73671;BME280;61968;48.178;11.566;2024-03-23T02:43:17;95068.66;;;11.46;33.05
73671;BME280;61968;48.178;11.566;2024-03-23T02:45:42;95070.03;;;11.54;33.06
73671;BME280;61968;48.178;11.566;2024-03-23T02:48:09;95060.28;;;11.60;33.09
73671;BME280;61968;48.178;11.566;2024-03-23T02:50:34;95056.69;;;11.71;32.73
73671;BME280;61968;48.178;11.566;2024-03-23T02:53:01;95053.25;;;11.70;32.82
73671;BME280;61968;48.178;11.566;2024-03-23T02:55:27;95059.00;;;11.62;32.78
73671;BME280;61968;48.178;11.566;2024-03-23T02:57:55;95056.50;;;11.50;33.08
73671;BME280;61968;48.178;11.566;2024-03-23T03:00:21;95059.72;;;11.52;33.14
73671;BME280;61968;48.178;11.566;2024-03-23T03:02:47;95054.66;;;11.51;33.18
73671;BME280;61968;48.178;11.566;2024-03-23T03:05:12;95058.41;;;11.55;33.37
73671;BME280;61968;48.178;11.566;2024-03-23T03:07:39;95048.56;;;11.50;33.38
73671;BME280;61968;48.178;11.566;2024-03-23T03:10:06;95053.28;;;11.43;33.30
73671;BME280;61968;48.178;11.566;2024-03-23T03:12:36;95050.00;;;11.31;33.79
73671;BME280;61968;48.178;11.566;2024-03-23T03:15:04;95034.19;;;11.41;33.47
73671;BME280;61968;48.178;11.566;2024-03-23T03:17:31;95039.19;;;11.38;33.86
73671;BME280;61968;48.178;11.566;2024-03-23T03:19:56;95034.19;;;11.41;33.74
73671;BME280;61968;48.178;11.566;2024-03-23T03:22:23;95036.56;;;11.38;33.77
73671;BME280;61968;48.178;11.566;2024-03-23T03:24:49;95028.00;;;11.25;33.97
73671;BME280;61968;48.178;11.566;2024-03-23T03:27:15;95031.16;;;11.27;34.01
73671;BME280;61968;48.178;11.566;2024-03-23T03:29:41;95035.78;;;11.42;33.98
73671;BME280;61968;48.178;11.566;2024-03-23T03:32:09;95026.03;;;11.48;34.10
73671;BME280;61968;48.178;11.566;2024-03-23T03:34:34;95022.94;;;11.56;33.64
73671;BME280;61968;48.178;11.566;2024-03-23T03:37:01;95019.97;;;11.47;33.86
73671;BME280;61968;48.178;11.566;2024-03-23T03:39:26;95026.25;;;11.41;34.07
73671;BME280;61968;48.178;11.566;2024-03-23T03:41:53;95021.75;;;11.42;34.21
73671;BME280;61968;48.178;11.566;2024-03-23T03:44:18;95008.50;;;11.37;34.18
73671;BME280;61968;48.178;11.566;2024-03-23T03:46:45;95008.41;;;11.26;34.36
73671;BME280;61968;48.178;11.566;2024-03-23T03:49:11;95005.25;;;11.29;34.42
73671;BME280;61968;48.178;11.566;2024-03-23T03:51:38;95007.06;;;11.24;34.45
73671;BME280;61968;48.178;11.566;2024-03-23T03:54:03;95001.25;;;11.27;34.11
73671;BME280;61968;48.178;11.566;2024-03-23T03:56:30;94995.00;;;11.38;34.17
73671;BME280;61968;48.178;11.566;2024-03-23T03:58:55;94998.09;;;11.25;34.30
73671;BME280;61968;48.178;11.566;2024-03-23T04:01:22;94993.44;;;11.42;34.52
73671;BME280;61968;48.178;11.566;2024-03-23T04:03:48;94987.34;;;11.37;34.32
73671;BME280;61968;48.178;11.566;2024-03-23T04:06:19;94986.81;;;11.40;34.12
73671;BME280;61968;48.178;11.566;2024-03-23T04:08:46;94986.81;;;11.40;34.23
73671;BME280;61968;48.178;11.566;2024-03-23T04:11:12;94978.34;;;11.38;34.25
73671;BME280;61968;48.178;11.566;2024-03-23T04:13:38;94967.97;;;11.31;34.34
73671;BME280;61968;48.178;11.566;2024-03-23T04:16:06;94967.13;;;11.25;34.42
73671;BME280;61968;48.178;11.566;2024-03-23T04:18:33;94963.91;;;11.23;34.26
73671;BME280;61968;48.178;11.566;2024-03-23T04:20:58;94956.81;;;11.29;34.14
73671;BME280;61968;48.178;11.566;2024-03-23T04:23:26;94949.69;;;11.29;34.33
73671;BME280;61968;48.178;11.566;2024-03-23T04:25:51;94945.56;;;11.12;34.43
73671;BME280;61968;48.178;11.566;2024-03-23T04:28:18;94945.72;;;11.00;34.71
73671;BME280;61968;48.178;11.566;2024-03-23T04:30:44;94943.84;;;10.95;34.79
73671;BME280;61968;48.178;11.566;2024-03-23T04:33:10;94937.63;;;11.06;34.58
73671;BME280;61968;48.178;11.566;2024-03-23T04:35:36;94939.53;;;11.16;34.51
73671;BME280;61968;48.178;11.566;2024-03-23T04:38:03;94934.47;;;11.10;34.54
73671;BME280;61968;48.178;11.566;2024-03-23T04:40:31;94928.66;;;11.13;34.47
73671;BME280;61968;48.178;11.566;2024-03-23T04:42:58;94920.91;;;11.06;34.51
73671;BME280;61968;48.178;11.566;2024-03-23T04:45:24;94929.06;;;10.99;34.68
73671;BME280;61968;48.178;11.566;2024-03-23T04:47:51;94915.59;;;11.01;34.51
73671;BME280;61968;48.178;11.566;2024-03-23T04:50:17;94915.56;;;10.96;34.59
73671;BME280;61968;48.178;11.566;2024-03-23T04:52:44;94908.41;;;10.96;34.50
73671;BME280;61968;48.178;11.566;2024-03-23T04:55:10;94907.13;;;10.99;34.44
73671;BME280;61968;48.178;11.566;2024-03-23T04:57:38;94903.84;;;10.87;34.47
73671;BME280;61968;48.178;11.566;2024-03-23T05:00:06;94902.34;;;10.96;34.06
73671;BME280;61968;48.178;11.566;2024-03-23T05:02:42;94889.94;;;11.01;34.13
73671;BME280;61968;48.178;11.566;2024-03-23T05:05:09;94891.13;;;11.16;34.08
73671;BME280;61968;48.178;11.566;2024-03-23T05:07:34;94879.94;;;11.08;33.78
73671;BME280;61968;48.178;11.566;2024-03-23T05:10:01;94883.69;;;11.13;33.64
73671;BME280;61968;48.178;11.566;2024-03-23T05:12:26;94884.72;;;11.06;33.69
73671;BME280;61968;48.178;11.566;2024-03-23T05:14:54;94875.34;;;10.94;33.79
73671;BME280;61968;48.178;11.566;2024-03-23T05:17:19;94876.56;;;10.81;34.05
73671;BME280;61968;48.178;11.566;2024-03-23T05:19:46;94877.19;;;10.93;33.69
73671;BME280;61968;48.178;11.566;2024-03-23T05:22:11;94872.72;;;10.99;33.42
73671;BME280;61968;48.178;11.566;2024-03-23T05:24:38;94875.59;;;10.92;33.83
73671;BME280;61968;48.178;11.566;2024-03-23T05:27:03;94871.38;;;10.96;33.56
73671;BME280;61968;48.178;11.566;2024-03-23T05:29:31;94870.94;;;11.04;33.61
73671;BME280;61968;48.178;11.566;2024-03-23T05:31:58;94867.50;;;11.04;33.43
73671;BME280;61968;48.178;11.566;2024-03-23T05:34:24;94871.03;;;11.20;33.35
73671;BME280;61968;48.178;11.566;2024-03-23T05:36:50;94866.03;;;11.23;33.36
73671;BME280;61968;48.178;11.566;2024-03-23T05:39:17;94862.84;;;11.26;33.24
73671;BME280;61968;48.178;11.566;2024-03-23T05:41:42;94868.09;;;11.21;33.12
73671;BME280;61968;48.178;11.566;2024-03-23T05:44:10;94868.44;;;11.77;40.26
73671;BME280;61968;48.178;11.566;2024-03-23T05:46:36;94860.66;;;12.29;40.10
73671;BME280;61968;48.178;11.566;2024-03-23T05:49:04;94858.59;;;12.46;33.41
73671;BME280;61968;48.178;11.566;2024-03-23T05:51:30;94850.56;;;12.20;32.71
73671;BME280;61968;48.178;11.566;2024-03-23T05:53:56;94849.19;;;11.97;32.67
73671;BME280;61968;48.178;11.566;2024-03-23T05:56:23;94849.91;;;11.77;33.41
73671;BME280;61968;48.178;11.566;2024-03-23T05:58:48;94845.91;;;11.70;33.25
73671;BME280;61968;48.178;11.566;2024-03-23T06:01:15;94841.19;;;11.77;32.83
73671;BME280;61968;48.178;11.566;2024-03-23T06:03:40;94834.69;;;11.58;32.58
73671;BME280;61968;48.178;11.566;2024-03-23T06:06:10;94828.59;;;11.57;32.92
73671;BME280;61968;48.178;11.566;2024-03-23T06:08:38;94828.88;;;11.61;33.08
73671;BME280;61968;48.178;11.566;2024-03-23T06:11:04;94820.16;;;11.55;33.00
73671;BME280;61968;48.178;11.566;2024-03-23T06:13:31;94820.09;;;11.45;33.03
73671;BME280;61968;48.178;11.566;2024-03-23T06:15:57;94812.59;;;11.26;33.55
73671;BME280;61968;48.178;11.566;2024-03-23T06:18:23;94809.41;;;11.29;33.53
73671;BME280;61968;48.178;11.566;2024-03-23T06:20:50;94814.72;;;11.29;33.32
73671;BME280;61968;48.178;11.566;2024-03-23T06:23:17;94796.97;;;11.30;33.51
73671;BME280;61968;48.178;11.566;2024-03-23T06:25:45;94795.09;;;11.20;33.86
73671;BME280;61968;48.178;11.566;2024-03-23T06:28:11;94793.09;;;11.43;33.95
73671;BME280;61968;48.178;11.566;2024-03-23T06:30:37;94789.44;;;11.59;33.70
73671;BME280;61968;48.178;11.566;2024-03-23T06:33:03;94788.94;;;11.72;32.99
73671;BME280;61968;48.178;11.566;2024-03-23T06:35:31;94777.13;;;11.85;33.25
73671;BME280;61968;48.178;11.566;2024-03-23T06:37:56;94767.31;;;11.96;32.97
73671;BME280;61968;48.178;11.566;2024-03-23T06:40:24;94765.19;;;12.03;33.46
73671;BME280;61968;48.178;11.566;2024-03-23T06:42:50;94750.63;;;11.95;32.78
73671;BME280;61968;48.178;11.566;2024-03-23T06:45:17;94751.19;;;12.28;41.19
73671;BME280;61968;48.178;11.566;2024-03-23T06:47:44;94747.75;;;12.68;40.01
73671;BME280;61968;48.178;11.566;2024-03-23T06:50:10;94746.66;;;12.95;38.17
73671;BME280;61968;48.178;11.566;2024-03-23T06:52:36;94747.41;;;13.06;37.12
73671;BME280;61968;48.178;11.566;2024-03-23T06:55:03;94737.91;;;12.95;31.85
73671;BME280;61968;48.178;11.566;2024-03-23T06:57:31;94742.94;;;12.96;36.01
73671;BME280;61968;48.178;11.566;2024-03-23T06:59:57;94734.44;;;12.99;33.60
73671;BME280;61968;48.178;11.566;2024-03-23T07:02:23;94744.00;;;12.90;32.31
73671;BME280;61968;48.178;11.566;2024-03-23T07:04:49;94728.63;;;12.87;32.78
73671;BME280;61968;48.178;11.566;2024-03-23T07:07:14;94733.97;;;12.82;32.27
73671;BME280;61968;48.178;11.566;2024-03-23T07:09:41;94735.53;;;12.83;33.18
73671;BME280;61968;48.178;11.566;2024-03-23T07:12:07;94738.72;;;12.80;33.09
73671;BME280;61968;48.178;11.566;2024-03-23T07:14:34;94733.94;;;12.97;33.48
73671;BME280;61968;48.178;11.566;2024-03-23T07:17:00;94742.72;;;12.77;33.36
73671;BME280;61968;48.178;11.566;2024-03-23T07:19:26;94735.00;;;12.76;34.58
73671;BME280;61968;48.178;11.566;2024-03-23T07:21:53;94737.41;;;12.72;34.79
73671;BME280;61968;48.178;11.566;2024-03-23T07:24:20;94728.13;;;12.59;33.17
73671;BME280;61968;48.178;11.566;2024-03-23T07:26:45;94746.44;;;12.66;35.09
73671;BME280;61968;48.178;11.566;2024-03-23T07:29:12;94744.06;;;12.64;34.24
73671;BME280;61968;48.178;11.566;2024-03-23T07:31:39;94749.88;;;12.82;32.83
73671;BME280;61968;48.178;11.566;2024-03-23T07:34:06;94748.28;;;12.65;34.64
73671;BME280;61968;48.178;11.566;2024-03-23T07:36:32;94762.06;;;12.52;33.67
73671;BME280;61968;48.178;11.566;2024-03-23T07:38:58;94793.09;;;12.52;34.11
73671;BME280;61968;48.178;11.566;2024-03-23T07:41:24;94800.78;;;12.38;34.99
73671;BME280;61968;48.178;11.566;2024-03-23T07:43:53;94831.97;;;11.42;39.88
73671;BME280;61968;48.178;11.566;2024-03-23T07:46:20;94845.50;;;10.39;43.42
73671;BME280;61968;48.178;11.566;2024-03-23T07:48:48;94849.25;;;10.75;42.64
73671;BME280;61968;48.178;11.566;2024-03-23T07:51:16;94848.59;;;10.04;43.35
73671;BME280;61968;48.178;11.566;2024-03-23T07:53:44;94850.72;;;9.41;45.06
73671;BME280;61968;48.178;11.566;2024-03-23T07:56:09;94858.22;;;9.10;47.13
73671;BME280;61968;48.178;11.566;2024-03-23T07:58:37;94862.06;;;9.02;47.01
73671;BME280;61968;48.178;11.566;2024-03-23T08:01:06;94863.13;;;9.01;48.28
73671;BME280;61968;48.178;11.566;2024-03-23T08:03:34;94880.22;;;9.16;48.25
73671;BME280;61968;48.178;11.566;2024-03-23T08:06:08;94881.72;;;9.12;48.92
73671;BME280;61968;48.178;11.566;2024-03-23T08:08:35;94900.59;;;8.87;49.20
73671;BME280;61968;48.178;11.566;2024-03-23T08:11:00;94896.00;;;8.82;50.06
73671;BME280;61968;48.178;11.566;2024-03-23T08:13:27;94914.66;;;8.64;50.55
73671;BME280;61968;48.178;11.566;2024-03-23T08:15:56;94912.50;;;8.89;50.41
73671;BME280;61968;48.178;11.566;2024-03-23T08:18:23;94916.22;;;9.27;49.27
73671;BME280;61968;48.178;11.566;2024-03-23T08:20:55;94913.75;;;9.03;50.31
73671;BME280;61968;48.178;11.566;2024-03-23T08:23:23;94934.84;;;9.03;50.39
73671;BME280;61968;48.178;11.566;2024-03-23T08:25:49;94976.22;;;8.57;51.98
73671;BME280;61968;48.178;11.566;2024-03-23T08:28:15;95015.84;;;8.34;52.31
73671;BME280;61968;48.178;11.566;2024-03-23T08:30:41;95002.75;;;8.39;51.62
73671;BME280;61968;48.178;11.566;2024-03-23T08:33:07;94995.59;;;8.51;50.80
73671;BME280;61968;48.178;11.566;2024-03-23T08:35:33;95004.16;;;8.70;50.51
73671;BME280;61968;48.178;11.566;2024-03-23T08:38:03;95017.81;;;9.13;49.29
73671;BME280;61968;48.178;11.566;2024-03-23T08:40:30;95003.50;;;9.42;47.92
73671;BME280;61968;48.178;11.566;2024-03-23T08:42:56;95022.81;;;8.97;48.75
73671;BME280;61968;48.178;11.566;2024-03-23T08:45:22;95016.06;;;9.18;48.24
73671;BME280;61968;48.178;11.566;2024-03-23T08:47:49;95019.16;;;8.70;49.02
73671;BME280;61968;48.178;11.566;2024-03-23T08:50:14;95018.63;;;8.68;48.48
73671;BME280;61968;48.178;11.566;2024-03-23T08:52:41;95024.50;;;9.03;48.35
73671;BME280;61968;48.178;11.566;2024-03-23T08:55:07;95029.34;;;8.78;48.58
73671;BME280;61968;48.178;11.566;2024-03-23T08:57:36;95035.59;;;8.48;49.50
73671;BME280;61968;48.178;11.566;2024-03-23T09:00:02;95034.81;;;8.36;50.25
73671;BME280;61968;48.178;11.566;2024-03-23T09:02:28;95050.25;;;8.68;48.96
73671;BME280;61968;48.178;11.566;2024-03-23T09:04:54;95053.47;;;8.46;48.85
73671;BME280;61968;48.178;11.566;2024-03-23T09:07:20;95060.19;;;8.14;49.56
73671;BME280;61968;48.178;11.566;2024-03-23T09:09:46;95068.25;;;8.47;49.80
73671;BME280;61968;48.178;11.566;2024-03-23T09:12:12;95068.09;;;8.14;50.27
73671;BME280;61968;48.178;11.566;2024-03-23T09:14:39;95060.66;;;7.87;51.77
73671;BME280;61968;48.178;11.566;2024-03-23T09:17:06;95060.41;;;7.88;51.42
73671;BME280;61968;48.178;11.566;2024-03-23T09:19:32;95062.72;;;7.61;52.24
73671;BME280;61968;48.178;11.566;2024-03-23T09:21:58;95066.06;;;7.38;53.08
73671;BME280;61968;48.178;11.566;2024-03-23T09:24:23;95068.00;;;7.31;53.02
73671;BME280;61968;48.178;11.566;2024-03-23T09:26:51;95082.50;;;7.34;52.86
73671;BME280;61968;48.178;11.566;2024-03-23T09:29:17;95080.59;;;6.99;51.73
73671;BME280;61968;48.178;11.566;2024-03-23T09:31:45;95066.47;;;6.82;53.34
73671;BME280;61968;48.178;11.566;2024-03-23T09:34:11;95070.47;;;7.56;52.31
73671;BME280;61968;48.178;11.566;2024-03-23T09:36:37;95099.44;;;7.26;52.54
73671;BME280;61968;48.178;11.566;2024-03-23T09:39:03;95079.69;;;7.47;51.72
73671;BME280;61968;48.178;11.566;2024-03-23T09:41:31;95076.69;;;7.74;50.16
73671;BME280;61968;48.178;11.566;2024-03-23T09:43:56;95077.34;;;7.27;50.30
73671;BME280;61968;48.178;11.566;2024-03-23T09:46:23;95081.19;;;7.01;50.32
73671;BME280;61968;48.178;11.566;2024-03-23T09:48:50;95103.09;;;7.25;48.89
73671;BME280;61968;48.178;11.566;2024-03-23T09:51:16;95101.81;;;6.67;50.97
73671;BME280;61968;48.178;11.566;2024-03-23T09:53:42;95112.63;;;6.78;51.14
73671;BME280;61968;48.178;11.566;2024-03-23T09:56:08;95116.53;;;6.13;51.60
73671;BME280;61968;48.178;11.566;2024-03-23T09:58:34;95113.00;;;6.01;53.15
73671;BME280;61968;48.178;11.566;2024-03-23T10:01:01;95147.53;;;6.23;50.97
73671;BME280;61968;48.178;11.566;2024-03-23T10:03:27;95133.38;;;5.80;51.10
73671;BME280;61968;48.178;11.566;2024-03-23T10:06:02;95139.16;;;5.89;51.64
73671;BME280;61968;48.178;11.566;2024-03-23T10:08:29;95145.91;;;6.65;51.62
73671;BME280;61968;48.178;11.566;2024-03-23T10:10:56;95138.59;;;6.31;50.74
73671;BME280;61968;48.178;11.566;2024-03-23T10:13:25;95131.91;;;6.53;51.29
73671;BME280;61968;48.178;11.566;2024-03-23T10:15:56;95124.44;;;6.68;49.42
73671;BME280;61968;48.178;11.566;2024-03-23T10:18:22;95153.28;;;5.63;50.84
73671;BME280;61968;48.178;11.566;2024-03-23T10:20:51;95153.75;;;5.53;51.19
73671;BME280;61968;48.178;11.566;2024-03-23T10:23:19;95140.22;;;5.81;49.38
73671;BME280;61968;48.178;11.566;2024-03-23T10:25:46;95143.31;;;5.47;50.15
73671;BME280;61968;48.178;11.566;2024-03-23T10:28:11;95141.94;;;5.69;49.87
73671;BME280;61968;48.178;11.566;2024-03-23T10:30:39;95144.97;;;6.16;50.74
73671;BME280;61968;48.178;11.566;2024-03-23T10:33:08;95132.41;;;6.62;50.42
73671;BME280;61968;48.178;11.566;2024-03-23T10:35:36;95130.91;;;6.84;49.61
73671;BME280;61968;48.178;11.566;2024-03-23T10:38:04;95144.69;;;7.16;49.65
73671;BME280;61968;48.178;11.566;2024-03-23T10:40:34;95148.16;;;6.80;49.85
73671;BME280;61968;48.178;11.566;2024-03-23T10:43:00;95150.69;;;7.05;50.49
73671;BME280;61968;48.178;11.566;2024-03-23T10:45:26;95173.91;;;7.38;49.39
73671;BME280;61968;48.178;11.566;2024-03-23T10:47:52;95157.56;;;7.48;49.97
73671;BME280;61968;48.178;11.566;2024-03-23T10:50:18;95161.63;;;7.02;49.79
73671;BME280;61968;48.178;11.566;2024-03-23T10:52:46;95182.13;;;7.12;48.89
73671;BME280;61968;48.178;11.566;2024-03-23T10:55:16;95186.16;;;7.14;47.95
73671;BME280;61968;48.178;11.566;2024-03-23T10:57:47;95184.16;;;7.10;47.76
73671;BME280;61968;48.178;11.566;2024-03-23T11:00:15;95194.75;;;7.21;47.04
73671;BME280;61968;48.178;11.566;2024-03-23T11:02:41;95203.28;;;7.35;46.18
73671;BME280;61968;48.178;11.566;2024-03-23T11:05:28;95198.09;;;7.29;46.18
73671;BME280;61968;48.178;11.566;2024-03-23T11:07:54;95205.41;;;7.27;46.39
73671;BME280;61968;48.178;11.566;2024-03-23T11:10:25;95214.78;;;7.04;46.17
73671;BME280;61968;48.178;11.566;2024-03-23T11:12:52;95218.75;;;6.95;46.53
73671;BME280;61968;48.178;11.566;2024-03-23T11:15:19;95226.31;;;7.03;47.41
73671;BME280;61968;48.178;11.566;2024-03-23T11:18:02;95230.41;;;7.17;46.64
73671;BME280;61968;48.178;11.566;2024-03-23T11:20:31;95233.63;;;7.01;47.32
73671;BME280;61968;48.178;11.566;2024-03-23T11:22:57;95244.41;;;7.30;46.52
73671;BME280;61968;48.178;11.566;2024-03-23T11:25:24;95237.97;;;7.44;46.49
73671;BME280;61968;48.178;11.566;2024-03-23T11:27:51;95218.53;;;7.75;46.33
73671;BME280;61968;48.178;11.566;2024-03-23T11:30:20;95204.78;;;7.73;45.78
73671;BME280;61968;48.178;11.566;2024-03-23T11:32:48;95189.94;;;7.49;46.45
73671;BME280;61968;48.178;11.566;2024-03-23T11:35:28;95208.16;;;6.83;47.37
73671;BME280;61968;48.178;11.566;2024-03-23T11:38:04;95217.56;;;6.91;46.20
73671;BME280;61968;48.178;11.566;2024-03-23T11:40:31;95215.44;;;6.81;45.90
73671;BME280;61968;48.178;11.566;2024-03-23T11:42:58;95224.47;;;6.67;46.70
73671;BME280;61968;48.178;11.566;2024-03-23T11:45:26;95215.69;;;6.98;45.09
73671;BME280;61968;48.178;11.566;2024-03-23T11:48:02;95217.88;;;7.01;44.31
73671;BME280;61968;48.178;11.566;2024-03-23T11:50:29;95233.81;;;7.18;43.20
73671;BME280;61968;48.178;11.566;2024-03-23T11:53:06;95233.69;;;6.76;42.50
73671;BME280;61968;48.178;11.566;2024-03-23T11:55:39;95218.22;;;6.49;43.24
73671;BME280;61968;48.178;11.566;2024-03-23T11:58:05;95193.00;;;7.15;42.60
73671;BME280;61968;48.178;11.566;2024-03-23T12:00:33;95192.59;;;7.00;42.79
73671;BME280;61968;48.178;11.566;2024-03-23T12:03:00;95201.88;;;7.51;42.29
73671;BME280;61968;48.178;11.566;2024-03-23T12:05:27;95205.66;;;6.51;42.83
73671;BME280;61968;48.178;11.566;2024-03-23T12:07:53;95212.97;;;6.49;43.23
73671;BME280;61968;48.178;11.566;2024-03-23T12:10:19;95213.91;;;6.73;42.35
73671;BME280;61968;48.178;11.566;2024-03-23T12:12:45;95214.81;;;6.86;40.73
73671;BME280;61968;48.178;11.566;2024-03-23T12:15:14;95213.44;;;7.32;40.72
73671;BME280;61968;48.178;11.566;2024-03-23T12:17:41;95215.47;;;7.30;40.76
73671;BME280;61968;48.178;11.566;2024-03-23T12:20:08;95204.84;;;6.69;39.90
73671;BME280;61968;48.178;11.566;2024-03-23T12:22:34;95207.31;;;6.64;40.89
73671;BME280;61968;48.178;11.566;2024-03-23T12:25:00;95200.91;;;6.97;39.86
73671;BME280;61968;48.178;11.566;2024-03-23T12:27:26;95208.00;;;6.96;39.37
73671;BME280;61968;48.178;11.566;2024-03-23T12:29:52;95214.13;;;6.72;39.30
73671;BME280;61968;48.178;11.566;2024-03-23T12:32:18;95203.97;;;6.57;40.21
73671;BME280;61968;48.178;11.566;2024-03-23T12:34:47;95189.59;;;6.96;39.46
73671;BME280;61968;48.178;11.566;2024-03-23T12:37:12;95185.72;;;6.99;39.18
73671;BME280;61968;48.178;11.566;2024-03-23T12:39:39;95191.28;;;6.72;38.98
73671;BME280;61968;48.178;11.566;2024-03-23T12:42:05;95201.63;;;6.24;39.33
73671;BME280;61968;48.178;11.566;2024-03-23T12:44:32;95204.22;;;6.92;38.35
73671;BME280;61968;48.178;11.566;2024-03-23T12:46:58;95198.22;;;6.85;38.11
73671;BME280;61968;48.178;11.566;2024-03-23T12:49:24;95196.88;;;7.13;37.31
73671;BME280;61968;48.178;11.566;2024-03-23T12:51:58;95189.31;;;6.86;38.36
73671;BME280;61968;48.178;11.566;2024-03-23T12:54:25;95198.22;;;6.23;39.00
73671;BME280;61968;48.178;11.566;2024-03-23T12:56:50;95186.25;;;6.71;37.65
73671;BME280;61968;48.178;11.566;2024-03-23T12:59:17;95199.91;;;6.98;37.29
73671;BME280;61968;48.178;11.566;2024-03-23T13:01:43;95195.22;;;7.00;38.46
73671;BME280;61968;48.178;11.566;2024-03-23T13:04:10;95190.75;;;7.01;38.32
73671;BME280;61968;48.178;11.566;2024-03-23T13:06:36;95190.13;;;6.87;38.17
73671;BME280;61968;48.178;11.566;2024-03-23T13:09:04;95193.34;;;6.89;38.02
73671;BME280;61968;48.178;11.566;2024-03-23T13:11:30;95203.91;;;6.82;38.48
73671;BME280;61968;48.178;11.566;2024-03-23T13:13:56;95203.47;;;7.34;37.85
73671;BME280;61968;48.178;11.566;2024-03-23T13:16:22;95207.56;;;7.48;37.78
73671;BME280;61968;48.178;11.566;2024-03-23T13:18:49;95200.31;;;7.62;37.14
73671;BME280;61968;48.178;11.566;2024-03-23T13:21:15;95191.13;;;7.83;37.37
73671;BME280;61968;48.178;11.566;2024-03-23T13:23:41;95169.13;;;7.77;36.86
73671;BME280;61968;48.178;11.566;2024-03-23T13:26:10;95164.56;;;7.84;35.38
73671;BME280;61968;48.178;11.566;2024-03-23T13:28:36;95159.16;;;7.37;36.34
73671;BME280;61968;48.178;11.566;2024-03-23T13:31:02;95161.34;;;6.73;36.62
73671;BME280;61968;48.178;11.566;2024-03-23T13:33:29;95155.31;;;6.55;36.58
73671;BME280;61968;48.178;11.566;2024-03-23T13:35:55;95163.69;;;6.63;36.89
73671;BME280;61968;48.178;11.566;2024-03-23T13:38:22;95166.41;;;6.75;36.63
73671;BME280;61968;48.178;11.566;2024-03-23T13:40:52;95172.75;;;7.16;36.52
73671;BME280;61968;48.178;11.566;2024-03-23T13:43:20;95179.09;;;6.78;36.85
73671;BME280;61968;48.178;11.566;2024-03-23T13:45:46;95174.94;;;7.07;36.79
73671;BME280;61968;48.178;11.566;2024-03-23T13:48:14;95178.06;;;6.97;37.30